EGGP/LPL METAR and TAF weather

Enter ICAO airport designator
Station Type Date Time Source
EGGP METAR 2021/02/28 02:50 UTC NOAA

EGGP 280250Z AUTO 05004KT 030V110 9999 NCD 03/02 Q1040


Station Type Date Time Source
EGGP Decoded METAR 2021/02/28 02:50 UTC NOAA

Liverpool Airport , United Kingdom (EGGP) 53-20N 002-51W
Feb 27, 2021 - 09:50 PM EST / 2021.02.28 0250 UTC
Wind: from the NE (050 degrees) at 5 MPH (4 KT) (direction variable):0
Visibility: greater than 7 mile(s):0
Temperature: 37 F (3 C)
Dew Point: 35 F (2 C)
Relative Humidity: 93%
Pressure (altimeter): 30.71 in. Hg (1040 hPa)
ob: EGGP 280250Z AUTO 05004KT 030V110 9999 NCD 03/02 Q1040
cycle: 3

Station Type Date Time Source
EGGP TAF 2021/02/27 18:11 UTC NOAA

TAF EGGP 271654Z 2718/2818 VRB03KT 9999 FEW025 PROB30 2718/2722 8000
BECMG 2722/2801 6000
TEMPO 2801/2810 4000 BR PROB30
TEMPO 2803/2809 0300 FG VV///
BECMG 2810/2813 9999 NSW

Example: see airport list